Time;durP1;ratioP1;P1;durP2;ratioP2;P2;SDS_P1;SDS_P2;PMS_P1;PMS_P2;Temp;Humidity;BMP_temperature;BMP_pressure;BME280_temperature;BME280_humidity;BME280_pressure;Samples;Min_cycle;Max_cycle;Signal;HPM_P1;HPM_P2
2021/04/11 00:01:14;;;;;;;4.13;3.70;;;6.20;68.60;;;;;;5095184;28;20182;-68
2021/04/11 00:03:39;;;;;;;3.67;3.33;;;6.10;68.70;;;;;;5093869;28;20174;-68
2021/04/11 00:06:05;;;;;;;4.67;3.60;;;6.10;68.90;;;;;;5096307;28;20580;-67
2021/04/11 00:08:31;;;;;;;4.53;3.80;;;6.10;68.90;;;;;;5097501;28;20196;-68
2021/04/11 00:10:59;;;;;;;3.47;3.27;;;6.10;69.40;;;;;;5091776;28;20508;-68
2021/04/11 00:13:32;;;;;;;5.47;3.23;;;6.10;69.60;;;;;;5089010;28;20236;-67
2021/04/11 00:15:58;;;;;;;5.63;3.90;;;6.10;69.40;;;;;;5099119;28;20186;-68
2021/04/11 00:18:24;;;;;;;5.03;4.17;;;6.00;70.10;;;;;;5098792;28;20711;-68
2021/04/11 00:20:49;;;;;;;3.30;3.00;;;6.00;69.90;;;;;;5092744;28;20526;-68
2021/04/11 00:23:16;;;;;;;3.77;3.43;;;5.90;70.30;;;;;;5093245;28;20181;-69
2021/04/11 00:25:42;;;;;;;4.40;3.23;;;5.90;70.50;;;;;;5090049;28;20186;-68
2021/04/11 00:28:10;;;;;;;7.63;3.20;;;5.90;70.20;;;;;;5093118;28;20183;-68
2021/04/11 00:30:36;;;;;;;5.30;3.77;;;5.90;70.50;;;;;;5095259;28;20233;-68
2021/04/11 00:33:04;;;;;;;5.23;4.53;;;5.90;70.70;;;;;;5093854;28;20213;-68
2021/04/11 00:35:30;;;;;;;8.40;3.67;;;5.80;71.10;;;;;;5092551;28;20186;-68
2021/04/11 00:37:56;;;;;;;6.03;4.17;;;5.80;72.30;;;;;;5094939;28;20190;-68
2021/04/11 00:40:24;;;;;;;5.17;4.17;;;5.80;72.70;;;;;;5097381;28;20178;-68
2021/04/11 00:43:06;;;;;;;9.97;4.60;;;5.70;72.40;;;;;;5095461;28;20743;-68
2021/04/11 00:45:41;;;;;;;4.23;3.87;;;5.60;72.40;;;;;;5093663;28;20211;-68
2021/04/11 00:48:09;;;;;;;4.33;3.93;;;5.70;72.30;;;;;;5094841;28;20715;-68
2021/04/11 00:50:36;;;;;;;5.97;4.47;;;5.60;72.10;;;;;;5091519;28;20179;-67
2021/04/11 00:53:01;;;;;;;4.43;3.70;;;5.50;72.60;;;;;;5092676;28;20210;-68
2021/04/11 00:55:27;;;;;;;9.30;4.00;;;5.50;72.40;;;;;;5091028;28;20363;-68
2021/04/11 00:57:54;;;;;;;6.00;4.57;;;5.50;72.50;;;;;;5090966;28;20190;-68
2021/04/11 01:00:25;;;;;;;5.93;4.30;;;5.50;72.50;;;;;;5095331;28;20209;-68
2021/04/11 01:02:51;;;;;;;6.17;4.67;;;5.40;73.10;;;;;;5088698;28;20208;-68
2021/04/11 01:05:24;;;;;;;5.03;4.27;;;5.40;73.20;;;;;;5096492;28;20568;-68
2021/04/11 01:07:51;;;;;;;6.37;4.27;;;5.40;74.00;;;;;;5093610;28;20183;-68
2021/04/11 01:10:23;;;;;;;5.67;4.37;;;5.40;74.20;;;;;;5089592;28;20265;-67
2021/04/11 01:12:50;;;;;;;7.23;4.70;;;5.40;73.80;;;;;;5090585;28;20210;-68
2021/04/11 01:15:23;;;;;;;6.90;4.13;;;5.30;73.80;;;;;;5098899;28;20189;-68
2021/04/11 01:17:49;;;;;;;4.33;3.97;;;5.30;73.80;;;;;;5092674;28;20289;-68
2021/04/11 01:20:16;;;;;;;5.27;4.03;;;5.20;74.20;;;;;;5091310;28;20289;-68
2021/04/11 01:22:42;;;;;;;11.13;4.10;;;5.10;74.00;;;;;;5087058;28;20277;-68
2021/04/11 01:25:16;;;;;;;5.60;4.30;;;5.10;74.20;;;;;;5090774;28;20261;-68
2021/04/11 01:27:42;;;;;;;2.97;2.80;;;5.10;74.20;;;;;;5068408;28;20190;-67
2021/04/11 01:30:20;;;;;;;3.17;2.87;;;5.10;74.10;;;;;;5093458;28;20186;-68
2021/04/11 01:32:47;;;;;;;5.80;3.60;;;5.00;74.00;;;;;;5096741;28;20807;-67
2021/04/11 01:35:16;;;;;;;5.23;3.70;;;5.00;74.50;;;;;;5091772;28;20197;-67
2021/04/11 01:37:41;;;;;;;5.37;3.83;;;5.00;74.60;;;;;;5092530;28;20728;-67
2021/04/11 01:40:11;;;;;;;4.57;3.33;;;4.90;75.10;;;;;;5097348;28;20178;-68
2021/04/11 01:42:37;;;;;;;5.87;3.93;;;4.90;75.40;;;;;;5093541;28;20216;-68
2021/04/11 01:45:03;;;;;;;6.97;3.23;;;4.90;75.50;;;;;;5089427;28;20250;-67
2021/04/11 01:47:29;;;;;;;8.37;4.00;;;4.90;75.70;;;;;;5093927;28;20190;-69
2021/04/11 01:49:55;;;;;;;5.63;3.77;;;4.80;75.60;;;;;;5098310;28;20624;-68
2021/04/11 01:52:24;;;;;;;4.47;4.07;;;4.80;75.40;;;;;;5092515;28;20212;-69
2021/04/11 01:54:51;;;;;;;9.57;4.37;;;4.80;75.80;;;;;;5097195;28;20197;-69
2021/04/11 01:57:25;;;;;;;6.77;3.60;;;4.80;75.80;;;;;;5090735;28;20607;-68
2021/04/11 02:00:11;;;;;;;5.90;3.90;;;4.70;75.30;;;;;;5089601;28;20178;-69
2021/04/11 02:02:37;;;;;;;4.73;3.40;;;4.70;75.60;;;;;;5091670;28;20177;-69
2021/04/11 02:05:09;;;;;;;4.23;2.77;;;4.70;75.20;;;;;;5094468;28;20178;-69
2021/04/11 02:07:36;;;;;;;5.90;3.83;;;4.60;75.10;;;;;;5093150;28;20599;-69
2021/04/11 02:10:06;;;;;;;4.03;3.50;;;4.60;75.70;;;;;;5092180;28;20230;-69
2021/04/11 02:12:32;;;;;;;7.50;2.70;;;4.60;75.40;;;;;;5091732;28;20206;-69
2021/04/11 02:14:58;;;;;;;4.10;2.87;;;4.50;76.40;;;;;;5090895;28;20232;-68
2021/04/11 02:17:23;;;;;;;3.27;2.97;;;4.50;76.30;;;;;;5088360;28;20691;-68
2021/04/11 02:19:52;;;;;;;4.40;2.90;;;4.50;76.20;;;;;;5094007;28;20230;-68
2021/04/11 02:22:28;;;;;;;4.80;3.40;;;4.50;76.30;;;;;;5091531;28;20757;-68
2021/04/11 02:24:54;;;;;;;7.27;4.60;;;4.50;76.30;;;;;;5073081;28;20192;-68
2021/04/11 02:27:21;;;;;;;3.77;3.13;;;4.50;76.10;;;;;;5089854;28;20693;-68
2021/04/11 02:29:48;;;;;;;3.50;3.13;;;4.50;76.20;;;;;;5091916;28;20193;-68
2021/04/11 02:32:15;;;;;;;5.17;4.00;;;4.50;76.60;;;;;;5097367;28;20284;-68
2021/04/11 02:34:43;;;;;;;5.27;3.53;;;4.50;76.60;;;;;;5089421;28;20189;-67
2021/04/11 02:37:21;;;;;;;3.27;2.87;;;4.50;76.50;;;;;;5090889;28;20174;-68
2021/04/11 02:39:47;;;;;;;5.43;3.90;;;4.50;76.20;;;;;;5086323;28;20542;-68
2021/04/11 02:42:19;;;;;;;4.80;4.03;;;4.50;76.70;;;;;;5092098;28;20728;-67
2021/04/11 02:44:47;;;;;;;7.77;4.90;;;4.50;76.70;;;;;;5093477;28;20785;-68
2021/04/11 02:47:14;;;;;;;7.87;4.50;;;4.40;76.40;;;;;;5089775;28;20194;-69
2021/04/11 02:49:43;;;;;;;10.93;4.90;;;4.40;76.50;;;;;;5090125;28;20717;-68
2021/04/11 02:52:18;;;;;;;8.90;4.73;;;4.40;76.60;;;;;;5085562;28;20634;-68
2021/04/11 02:54:44;;;;;;;9.13;4.80;;;4.40;76.60;;;;;;5092995;28;20182;-68
2021/04/11 02:57:10;;;;;;;5.83;4.60;;;4.40;76.70;;;;;;5084099;28;20549;-69
2021/04/11 02:59:37;;;;;;;13.30;4.50;;;4.40;76.50;;;;;;5086717;28;20188;-69
2021/04/11 03:02:04;;;;;;;13.50;4.83;;;4.40;76.50;;;;;;5085980;28;20201;-69
2021/04/11 03:04:30;;;;;;;4.93;4.33;;;4.40;76.70;;;;;;5095078;28;20335;-69
2021/04/11 03:07:00;;;;;;;6.57;4.10;;;4.30;77.20;;;;;;5091175;28;20249;-69
2021/04/11 03:09:32;;;;;;;5.67;3.93;;;4.30;77.40;;;;;;5089905;28;20561;-68
2021/04/11 03:12:00;;;;;;;8.90;4.77;;;4.20;77.10;;;;;;5089233;28;20278;-68
2021/04/11 03:14:30;;;;;;;9.37;4.50;;;4.20;77.50;;;;;;5093614;28;20182;-68
2021/04/11 03:16:56;;;;;;;5.23;3.53;;;4.20;77.50;;;;;;5087130;28;20217;-68
2021/04/11 03:19:44;;;;;;;7.90;4.20;;;4.20;77.60;;;;;;5093748;28;20257;-68
2021/04/11 03:22:10;;;;;;;3.87;3.47;;;4.20;77.50;;;;;;5093391;28;20698;-69
2021/04/11 03:24:37;;;;;;;11.10;4.40;;;4.10;77.40;;;;;;5092959;28;20243;-68
2021/04/11 03:27:17;;;;;;;5.10;3.50;;;4.10;78.00;;;;;;5089638;28;20182;-68
2021/04/11 03:29:57;;;;;;;5.47;4.13;;;4.00;78.10;;;;;;5094563;28;20185;-68
2021/04/11 03:32:32;;;;;;;3.97;3.40;;;4.00;77.60;;;;;;5089331;28;20202;-69
2021/04/11 03:35:02;;;;;;;3.63;3.00;;;3.90;77.90;;;;;;5089497;28;20272;-68
2021/04/11 03:37:30;;;;;;;4.60;3.33;;;3.90;77.80;;;;;;5091190;28;20174;-67
2021/04/11 03:39:57;;;;;;;3.40;3.20;;;3.90;78.20;;;;;;5089843;28;20289;-67
2021/04/11 03:42:28;;;;;;;3.40;2.83;;;3.80;78.10;;;;;;5090737;28;20657;-67
2021/04/11 03:44:58;;;;;;;6.43;3.80;;;3.80;78.00;;;;;;5095419;28;20201;-68
2021/04/11 03:47:38;;;;;;;4.50;2.67;;;3.70;78.10;;;;;;5093537;28;20182;-68
2021/04/11 03:50:35;;;;;;;2.60;2.40;;;3.70;78.00;;;;;;5097888;28;20174;-68
2021/04/11 03:53:16;;;;;;;5.10;2.97;;;3.70;77.90;;;;;;5094974;28;20224;-68
2021/04/11 03:55:46;;;;;;;4.03;2.90;;;3.70;78.00;;;;;;5093691;28;20196;-67
2021/04/11 03:58:21;;;;;;;5.43;3.33;;;3.70;78.00;;;;;;5099091;28;20181;-69
2021/04/11 04:00:52;;;;;;;2.97;2.77;;;3.70;78.20;;;;;;5096777;28;20185;-69
2021/04/11 04:03:20;;;;;;;4.53;2.43;;;3.70;78.50;;;;;;5098596;28;20286;-69
2021/04/11 04:05:48;;;;;;;3.00;2.83;;;3.70;78.40;;;;;;5094976;28;20641;-67
2021/04/11 04:08:14;;;;;;;2.70;2.50;;;3.70;78.40;;;;;;5092762;28;20658;-68
2021/04/11 04:11:17;;;;;;;3.00;2.80;;;3.70;78.70;;;;;;5093362;28;20190;-67
2021/04/11 04:13:45;;;;;;;3.50;3.20;;;3.70;78.40;;;;;;5052823;28;20241;-68
2021/04/11 04:16:18;;;;;;;4.50;3.50;;;3.80;78.20;;;;;;5049613;28;20778;-67
2021/04/11 04:18:44;;;;;;;6.50;4.07;;;3.80;78.40;;;;;;5054962;28;20205;-68
2021/04/11 04:21:18;;;;;;;4.70;3.57;;;3.80;78.30;;;;;;5056827;28;20183;-68
2021/04/11 04:23:46;;;;;;;5.33;4.27;;;3.80;78.30;;;;;;5053740;28;20186;-68
2021/04/11 04:26:20;;;;;;;5.40;3.80;;;3.80;78.20;;;;;;5054379;28;20210;-68
2021/04/11 04:29:25;;;;;;;8.67;4.27;;;3.80;78.00;;;;;;5049062;28;20186;-68
2021/04/11 04:32:05;;;;;;;4.20;3.23;;;3.90;78.10;;;;;;5048911;28;20223;-68
2021/04/11 04:34:36;;;;;;;3.27;2.97;;;3.90;77.90;;;;;;5050633;28;20234;-67
2021/04/11 04:37:33;;;;;;;6.93;2.67;;;3.90;78.10;;;;;;5052404;28;20188;-69
2021/04/11 04:40:19;;;;;;;4.17;3.30;;;3.90;77.80;;;;;;5053129;28;20179;-68
2021/04/11 04:42:54;;;;;;;2.83;2.60;;;4.00;78.30;;;;;;4971790;28;20613;-68
2021/04/11 04:45:38;;;;;;;4.20;3.37;;;4.00;77.90;;;;;;4970986;28;20377;-68
2021/04/11 04:48:19;;;;;;;2.57;2.30;;;4.00;77.60;;;;;;4971029;28;20240;-69
2021/04/11 04:51:02;;;;;;;4.80;3.00;;;4.10;77.60;;;;;;4994165;28;20204;-69
2021/04/11 04:53:43;;;;;;;3.17;2.97;;;4.10;77.60;;;;;;5011784;28;20207;-68
2021/04/11 04:56:16;;;;;;;4.07;3.00;;;4.10;77.60;;;;;;5009108;28;20204;-67
2021/04/11 04:58:58;;;;;;;3.43;3.10;;;4.20;77.70;;;;;;5006991;28;20192;-67
2021/04/11 05:01:33;;;;;;;4.00;3.60;;;4.20;77.20;;;;;;5009868;28;20662;-68
2021/04/11 05:04:09;;;;;;;4.23;2.97;;;4.30;77.40;;;;;;5013252;28;20195;-68
2021/04/11 05:06:41;;;;;;;6.83;4.07;;;4.30;77.40;;;;;;5011341;28;20684;-68
2021/04/11 05:09:22;;;;;;;6.73;4.97;;;4.40;77.20;;;;;;5005305;28;20193;-68
2021/04/11 05:12:01;;;;;;;5.23;3.77;;;4.40;76.80;;;;;;5010241;28;20704;-68
2021/04/11 05:14:37;;;;;;;6.13;3.63;;;4.40;76.40;;;;;;5009208;28;20706;-68
2021/04/11 05:17:33;;;;;;;4.87;3.67;;;4.50;76.10;;;;;;5010108;28;20203;-68
2021/04/11 05:20:07;;;;;;;4.60;3.80;;;4.50;76.20;;;;;;5050376;28;20262;-68
2021/04/11 05:22:51;;;;;;;6.03;4.53;;;4.60;76.20;;;;;;5094003;28;20212;-68
2021/04/11 05:25:46;;;;;;;4.73;4.20;;;4.60;76.60;;;;;;5097141;28;20234;-68
2021/04/11 05:28:43;;;;;;;4.63;4.13;;;4.70;76.90;;;;;;5091678;28;20232;-67
2021/04/11 05:31:16;;;;;;;6.20;3.90;;;4.80;77.10;;;;;;5017299;28;20196;-68
2021/04/11 05:33:43;;;;;;;8.47;4.40;;;4.80;76.60;;;;;;5017720;28;20283;-68
2021/04/11 05:36:23;;;;;;;4.63;4.03;;;4.90;76.40;;;;;;5016260;28;20200;-68
2021/04/11 05:42:10;;;;;;;3.93;3.63;;;5.00;76.60;;;;;;5018543;28;20195;-68
2021/04/11 05:44:47;;;;;;;5.80;4.33;;;5.00;75.00;;;;;;5017781;28;20266;-67
2021/04/11 05:47:30;;;;;;;6.63;4.27;;;5.10;74.80;;;;;;5019106;28;21127;-68
2021/04/11 05:50:02;;;;;;;7.27;4.23;;;5.10;74.60;;;;;;5018942;28;21088;-68
2021/04/11 05:52:38;;;;;;;6.80;4.80;;;5.10;74.60;;;;;;5020514;28;20681;-68
2021/04/11 05:55:07;;;;;;;5.93;4.90;;;5.20;74.50;;;;;;5016833;28;21038;-68
2021/04/11 05:57:42;;;;;;;4.50;4.13;;;5.30;74.90;;;;;;5000263;28;20219;-68
2021/04/11 06:00:10;;;;;;;12.67;5.37;;;5.30;74.70;;;;;;5013687;28;20188;-69
2021/04/11 06:02:53;;;;;;;9.30;6.13;;;5.40;74.30;;;;;;5013245;28;20207;-68
2021/04/11 06:05:18;;;;;;;11.20;5.43;;;5.40;74.10;;;;;;5014115;28;20247;-70
2021/04/11 06:07:49;;;;;;;7.20;4.57;;;5.50;74.20;;;;;;5034712;28;20198;-68
2021/04/11 06:10:44;;;;;;;10.87;4.73;;;5.60;73.70;;;;;;5086954;28;20228;-68
2021/04/11 06:13:36;;;;;;;7.67;4.93;;;5.70;73.40;;;;;;5086923;28;20206;-69
2021/04/11 06:16:15;;;;;;;9.90;4.97;;;5.80;73.40;;;;;;5029963;28;20370;-68
2021/04/11 06:18:47;;;;;;;3.90;3.50;;;5.80;72.90;;;;;;5028467;28;20203;-68
2021/04/11 06:21:54;;;;;;;5.47;4.00;;;5.90;72.80;;;;;;5033816;28;20223;-68
2021/04/11 06:24:56;;;;;;;4.17;3.80;;;6.00;73.00;;;;;;4943622;28;20226;-69
2021/04/11 06:27:40;;;;;;;7.70;4.10;;;6.10;73.40;;;;;;4942469;28;20195;-69
2021/04/11 06:30:19;;;;;;;5.13;3.87;;;6.20;73.70;;;;;;4942489;28;20257;-68
2021/04/11 06:32:48;;;;;;;8.77;4.77;;;6.30;73.30;;;;;;4944633;28;20220;-68
2021/04/11 06:35:26;;;;;;;3.60;3.30;;;6.40;72.70;;;;;;4943900;28;20195;-69
2021/04/11 06:37:56;;;;;;;7.03;4.73;;;6.50;72.50;;;;;;4944094;28;20750;-70
2021/04/11 06:40:49;;;;;;;11.00;4.57;;;6.60;72.20;;;;;;4944368;28;20199;-68
2021/04/11 06:43:39;;;;;;;4.80;3.57;;;6.70;72.20;;;;;;4944950;28;20262;-68
2021/04/11 06:46:25;;;;;;;5.47;4.17;;;6.70;71.70;;;;;;4945147;28;20290;-68
2021/04/11 06:49:09;;;;;;;4.13;3.20;;;6.80;71.40;;;;;;4944408;28;20214;-68
2021/04/11 06:52:11;;;;;;;6.20;4.40;;;6.90;71.10;;;;;;4946366;28;20649;-67
2021/04/11 06:54:58;;;;;;;5.43;4.53;;;7.00;70.50;;;;;;4962640;28;20228;-68
2021/04/11 06:57:28;;;;;;;4.40;3.87;;;7.10;70.60;;;;;;4961958;28;20702;-67
2021/04/11 07:00:18;;;;;;;7.23;4.83;;;7.10;70.40;;;;;;4965140;28;20265;-67
2021/04/11 07:03:12;;;;;;;5.07;3.83;;;7.20;70.50;;;;;;5092010;28;20175;-67
2021/04/11 07:06:15;;;;;;;7.73;4.27;;;7.30;70.10;;;;;;5088983;28;20180;-67
2021/04/11 07:09:03;;;;;;;4.43;3.87;;;7.50;69.80;;;;;;5087259;28;20178;-67
2021/04/11 07:11:44;;;;;;;5.00;4.53;;;7.60;69.60;;;;;;5093236;28;20197;-67
2021/04/11 07:14:21;;;;;;;8.13;5.00;;;7.70;69.80;;;;;;5097342;28;20190;-67
2021/04/11 07:16:56;;;;;;;6.40;4.03;;;7.80;69.40;;;;;;5101816;28;20227;-67
2021/04/11 07:20:10;;;;;;;4.87;4.53;;;7.90;69.30;;;;;;5094029;28;20619;-67
2021/04/11 07:22:54;;;;;;;8.23;4.77;;;8.00;69.10;;;;;;5031470;28;20262;-67
2021/04/11 07:25:41;;;;;;;7.43;4.30;;;8.10;68.70;;;;;;5034425;28;20180;-67
2021/04/11 07:28:12;;;;;;;5.77;5.17;;;8.20;68.50;;;;;;5035781;28;20748;-67
2021/04/11 07:31:14;;;;;;;7.30;5.23;;;8.30;68.20;;;;;;5034451;28;20736;-67
2021/04/11 07:33:48;;;;;;;4.70;4.33;;;8.40;68.30;;;;;;5029491;28;20204;-67
2021/04/11 07:36:30;;;;;;;5.63;5.07;;;8.50;67.70;;;;;;5029875;28;20234;-67
2021/04/11 07:39:32;;;;;;;10.00;6.03;;;8.60;67.10;;;;;;5035892;28;20207;-67
2021/04/11 07:42:36;;;;;;;5.60;5.00;;;8.70;67.20;;;;;;5033996;28;20192;-68
2021/04/11 07:45:19;;;;;;;4.83;4.23;;;8.70;67.20;;;;;;5032490;28;20202;-67
2021/04/11 07:47:57;;;;;;;5.70;4.73;;;8.80;66.60;;;;;;5026592;28;20192;-67
2021/04/11 07:50:59;;;;;;;9.30;4.67;;;9.00;66.60;;;;;;5036442;28;20176;-67
2021/04/11 07:53:28;;;;;;;5.33;4.20;;;9.10;66.40;;;;;;5036869;28;20265;-67
2021/04/11 07:56:04;;;;;;;4.97;4.30;;;9.10;66.30;;;;;;5032659;28;20267;-67
2021/04/11 07:58:37;;;;;;;5.30;4.40;;;9.20;65.90;;;;;;5054380;28;20269;-67
2021/04/11 08:01:27;;;;;;;5.17;4.73;;;9.30;65.60;;;;;;5094580;28;20209;-67
2021/04/11 08:04:18;;;;;;;5.00;4.50;;;9.50;65.80;;;;;;5074383;28;20603;-68
2021/04/11 08:07:02;;;;;;;3.53;3.30;;;9.60;64.80;;;;;;5094362;28;21487;-67
2021/04/11 08:09:36;;;;;;;3.97;3.57;;;9.80;64.80;;;;;;5093247;28;20192;-68
2021/04/11 08:12:33;;;;;;;9.07;3.97;;;9.90;65.00;;;;;;5095619;28;20225;-68
2021/04/11 08:15:17;;;;;;;8.60;4.07;;;10.00;64.90;;;;;;5091738;28;20185;-67
2021/04/11 08:18:04;;;;;;;6.30;4.47;;;10.30;64.20;;;;;;5096449;28;20182;-68
2021/04/11 08:20:54;;;;;;;8.67;4.57;;;10.30;64.10;;;;;;5097896;28;20212;-68
2021/04/11 08:23:37;;;;;;;4.83;4.33;;;10.50;63.20;;;;;;5091952;28;20207;-68
2021/04/11 08:26:35;;;;;;;5.30;4.70;;;10.60;62.70;;;;;;5096755;28;21469;-68
2021/04/11 08:29:22;;;;;;;4.77;4.03;;;10.80;62.80;;;;;;5092767;28;20202;-68
2021/04/11 08:31:56;;;;;;;3.77;3.57;;;11.00;62.40;;;;;;5092834;28;20201;-68
2021/04/11 08:34:59;;;;;;;9.13;4.27;;;11.10;62.00;;;;;;5094818;28;20257;-68
2021/04/11 08:37:49;;;;;;;5.90;4.30;;;11.30;61.80;;;;;;5091487;28;20182;-68
2021/04/11 08:40:33;;;;;;;6.33;4.23;;;11.50;61.30;;;;;;5099454;28;20206;-67
2021/04/11 08:43:17;;;;;;;7.77;4.70;;;11.60;61.50;;;;;;5091712;28;20257;-67
2021/04/11 08:45:48;;;;;;;5.63;4.70;;;11.90;60.80;;;;;;5096312;28;20569;-67
2021/04/11 08:48:28;;;;;;;5.47;4.50;;;12.10;60.30;;;;;;5091216;28;20201;-67
2021/04/11 08:51:09;;;;;;;8.43;4.90;;;12.50;60.40;;;;;;5098109;28;20575;-69
2021/04/11 08:53:47;;;;;;;7.47;5.35;;;12.80;59.50;;;;;;5094956;28;20244;-69
2021/04/11 08:56:43;;;;;;;5.32;4.93;;;13.40;59.20;;;;;;5089669;28;20181;-71
2021/04/11 08:59:30;;;;;;;6.00;5.05;;;14.00;58.60;;;;;;5088239;28;20174;-69
2021/04/11 09:02:25;;;;;;;5.68;5.15;;;14.90;55.90;;;;;;5096724;28;20178;-69
2021/04/11 09:05:01;;;;;;;6.93;5.60;;;15.70;54.90;;;;;;5094619;28;20325;-67
2021/04/11 09:07:58;;;;;;;7.68;5.05;;;16.40;54.00;;;;;;5093783;28;20166;-69
2021/04/11 09:10:42;;;;;;;10.32;5.15;;;17.10;52.50;;;;;;5094574;28;20169;-66
2021/04/11 09:13:44;;;;;;;5.15;4.72;;;17.80;50.90;;;;;;5093955;28;20235;-68
2021/04/11 09:16:19;;;;;;;5.35;4.35;;;18.60;49.90;;;;;;5088072;28;20189;-69
2021/04/11 09:19:14;;;;;;;6.85;5.15;;;19.80;48.90;;;;;;5093360;28;20181;-68
2021/04/11 09:22:14;;;;;;;3.78;3.55;;;20.70;47.60;;;;;;5089735;28;20181;-67
2021/04/11 09:25:10;;;;;;;4.85;4.20;;;21.80;46.20;;;;;;5089109;28;20228;-67
2021/04/11 09:28:06;;;;;;;7.35;4.90;;;22.60;44.60;;;;;;5034804;28;20198;-67
2021/04/11 09:30:55;;;;;;;5.25;4.55;;;23.50;42.80;;;;;;5035163;28;20202;-66
2021/04/11 09:33:47;;;;;;;6.85;3.95;;;23.50;42.70;;;;;;5031734;28;20432;-68
2021/04/11 09:36:22;;;;;;;4.40;3.78;;;23.70;41.80;;;;;;5035081;28;20198;-69
2021/04/11 09:39:19;;;;;;;4.15;3.85;;;24.20;42.50;;;;;;5015878;28;20196;-68
2021/04/11 09:42:12;;;;;;;3.95;3.65;;;24.90;41.90;;;;;;5035644;28;20180;-68
2021/04/11 09:45:02;;;;;;;5.97;3.22;;;25.50;41.60;;;;;;5035266;28;20197;-67
2021/04/11 09:48:05;;;;;;;3.30;3.08;;;26.30;39.90;;;;;;5036546;28;20215;-68
2021/04/11 09:50:46;;;;;;;4.18;3.05;;;26.40;39.40;;;;;;5039352;28;20214;-67
2021/04/11 09:53:25;;;;;;;3.80;3.50;;;26.50;39.60;;;;;;5035182;28;21520;-69
2021/04/11 09:56:00;;;;;;;2.67;2.58;;;26.30;38.60;;;;;;5040584;28;21036;-68
2021/04/11 09:58:29;;;;;;;3.22;3.03;;;26.10;40.10;;;;;;5039542;28;20586;-68
2021/04/11 10:01:11;;;;;;;3.00;2.67;;;26.20;39.70;;;;;;5035006;28;20198;-68
2021/04/11 10:04:31;;;;;;;5.40;2.40;;;26.80;39.70;;;;;;5044137;28;20550;-69
2021/04/11 10:07:30;;;;;;;2.65;2.50;;;27.20;39.00;;;;;;5053070;28;20199;-68
2021/04/11 10:10:07;;;;;;;2.90;2.65;;;27.40;38.70;;;;;;5064837;28;20179;-68
2021/04/11 10:13:20;;;;;;;2.78;2.58;;;27.90;39.20;;;;;;5049844;28;20210;-68
2021/04/11 10:16:20;;;;;;;2.42;2.33;;;28.60;38.40;;;;;;4981131;28;20204;-68
2021/04/11 10:18:55;;;;;;;3.63;2.60;;;29.50;38.80;;;;;;4981525;28;20228;-70
2021/04/11 10:21:27;;;;;;;2.20;2.10;;;30.30;36.00;;;;;;4978585;28;20185;-69
2021/04/11 10:24:15;;;;;;;2.58;2.42;;;30.80;35.50;;;;;;4976502;28;20205;-69
2021/04/11 10:27:25;;;;;;;4.53;2.15;;;31.10;37.20;;;;;;4979097;28;20263;-68
2021/04/11 10:29:52;;;;;;;3.90;1.67;;;31.20;36.30;;;;;;4960196;28;20721;-68
2021/04/11 10:32:57;;;;;;;1.88;1.77;;;31.70;36.50;;;;;;4961110;28;20313;-68
2021/04/11 10:35:40;;;;;;;1.55;1.55;;;32.50;34.80;;;;;;4921890;29;20278;-68
2021/04/11 10:38:40;;;;;;;1.30;1.30;;;33.40;33.40;;;;;;4921109;29;20308;-68
2021/04/11 10:41:16;;;;;;;4.38;1.88;;;33.40;35.10;;;;;;4932540;29;20254;-68
2021/04/11 10:44:06;;;;;;;1.77;1.40;;;33.70;32.10;;;;;;4941684;29;20205;-68
2021/04/11 10:46:46;;;;;;;1.45;1.45;;;33.70;32.90;;;;;;4937850;28;20239;-69
2021/04/11 10:49:34;;;;;;;1.05;1.05;;;33.50;33.10;;;;;;4954120;28;20201;-68
2021/04/11 10:52:26;;;;;;;1.48;1.27;;;33.70;34.00;;;;;;4986154;28;20209;-69
2021/04/11 10:55:26;;;;;;;1.85;1.00;;;33.80;33.00;;;;;;4991958;28;20749;-69
2021/04/11 10:58:19;;;;;;;2.67;1.15;;;34.20;32.80;;;;;;4986678;28;20655;-69
2021/04/11 11:01:10;;;;;;;1.23;1.10;;;34.50;32.90;;;;;;4993671;28;20767;-68
2021/04/11 11:03:55;;;;;;;2.90;1.40;;;34.60;31.50;;;;;;4994989;28;20238;-69
2021/04/11 11:07:07;;;;;;;1.02;1.02;;;34.70;32.00;;;;;;5001345;28;20283;-69
2021/04/11 11:09:48;;;;;;;3.50;1.50;;;35.10;32.80;;;;;;5009926;28;20301;-69
2021/04/11 11:12:32;;;;;;;1.27;1.27;;;35.10;33.50;;;;;;5043087;28;20289;-68
2021/04/11 11:15:13;;;;;;;2.47;1.75;;;35.40;31.80;;;;;;5087336;28;20206;-68
2021/04/11 11:18:05;;;;;;;1.30;1.30;;;35.70;31.90;;;;;;5080355;28;20660;-69
2021/04/11 11:21:02;;;;;;;1.27;1.17;;;36.00;31.90;;;;;;5093943;28;20182;-69
2021/04/11 11:23:55;;;;;;;1.50;1.50;;;36.10;32.30;;;;;;5097579;28;20257;-69
2021/04/11 11:26:34;;;;;;;1.80;1.75;;;36.00;31.80;;;;;;5098191;28;20676;-68
2021/04/11 11:29:26;;;;;;;1.50;1.50;;;36.00;31.70;;;;;;5093686;28;20209;-69
2021/04/11 11:32:13;;;;;;;2.47;1.70;;;35.80;30.90;;;;;;5095508;28;20207;-69
2021/04/11 11:35:03;;;;;;;1.50;1.40;;;35.90;33.80;;;;;;5097901;28;20199;-69
2021/04/11 11:37:57;;;;;;;1.42;1.42;;;36.10;33.30;;;;;;5097345;28;20186;-69
2021/04/11 11:40:23;;;;;;;1.90;1.80;;;36.50;31.60;;;;;;5095480;28;20184;-69
2021/04/11 11:43:10;;;;;;;1.80;1.70;;;36.80;33.60;;;;;;5099547;28;20178;-67
2021/04/11 11:46:03;;;;;;;2.88;1.95;;;37.00;33.80;;;;;;5098525;28;20213;-67
2021/04/11 11:48:59;;;;;;;1.73;1.52;;;37.10;32.80;;;;;;5098653;28;20189;-67
2021/04/11 11:51:34;;;;;;;1.85;1.75;;;37.20;31.10;;;;;;5096999;28;20666;-68
2021/04/11 11:54:17;;;;;;;1.58;1.50;;;37.30;32.70;;;;;;5073186;28;20181;-68
2021/04/11 11:57:01;;;;;;;3.47;1.77;;;37.40;31.80;;;;;;5098773;28;21937;-68
2021/04/11 11:59:32;;;;;;;2.33;2.22;;;37.60;31.80;;;;;;5089187;28;20185;-67
2021/04/11 12:02:15;;;;;;;1.77;1.67;;;37.30;32.00;;;;;;5094554;28;20182;-67
2021/04/11 12:04:44;;;;;;;2.35;1.60;;;37.10;32.40;;;;;;5094244;28;20216;-67
2021/04/11 12:07:25;;;;;;;2.63;1.73;;;37.00;33.00;;;;;;5077023;28;20222;-68
2021/04/11 12:10:01;;;;;;;1.83;1.80;;;36.30;31.00;;;;;;5091961;28;20605;-68
2021/04/11 12:12:33;;;;;;;2.20;1.48;;;35.50;32.50;;;;;;5094739;28;20765;-69
2021/04/11 12:15:22;;;;;;;1.45;1.45;;;34.60;32.40;;;;;;5092665;28;20218;-68
2021/04/11 12:18:06;;;;;;;1.40;1.25;;;33.90;32.80;;;;;;5097166;28;20184;-68
2021/04/11 12:20:38;;;;;;;1.50;1.40;;;33.80;32.70;;;;;;5102018;28;20177;-67
2021/04/11 12:23:43;;;;;;;3.30;1.70;;;34.10;33.70;;;;;;5092057;28;20943;-70
2021/04/11 12:26:18;;;;;;;1.10;1.10;;;34.30;31.40;;;;;;5094296;28;20202;-71
2021/04/11 12:28:47;;;;;;;1.95;1.35;;;34.60;32.90;;;;;;5092673;28;20181;-71
2021/04/11 12:31:27;;;;;;;3.53;1.58;;;35.00;33.40;;;;;;5097888;28;20185;-72
2021/04/11 12:34:04;;;;;;;1.88;1.30;;;35.50;33.40;;;;;;5094667;28;20192;-70
2021/04/11 12:36:44;;;;;;;1.17;1.17;;;36.10;32.10;;;;;;5095193;28;20685;-71
2021/04/11 12:39:21;;;;;;;1.20;1.20;;;36.60;32.80;;;;;;5089384;28;20173;-71
2021/04/11 12:42:23;;;;;;;4.00;1.25;;;36.80;30.20;;;;;;5092943;28;20627;-69
2021/04/11 12:45:02;;;;;;;3.60;1.48;;;36.60;31.00;;;;;;5089565;28;20215;-69
2021/04/11 12:47:46;;;;;;;2.80;1.20;;;36.90;33.00;;;;;;5088744;28;20209;-70
2021/04/11 12:50:18;;;;;;;3.70;1.98;;;37.10;30.40;;;;;;5093115;28;20177;-70
2021/04/11 12:53:05;;;;;;;2.78;1.90;;;37.20;32.20;;;;;;5075251;28;20647;-69
2021/04/11 12:55:43;;;;;;;1.98;1.88;;;37.20;32.30;;;;;;5099190;28;20177;-70
2021/04/11 12:58:27;;;;;;;1.88;1.30;;;36.50;32.50;;;;;;5091146;28;20181;-70
2021/04/11 13:01:08;;;;;;;1.17;1.17;;;34.40;32.20;;;;;;5092979;28;20553;-70
2021/04/11 13:03:43;;;;;;;1.17;1.17;;;34.20;32.00;;;;;;5087380;28;20592;-70
2021/04/11 13:06:20;;;;;;;2.03;1.35;;;33.10;31.90;;;;;;5089203;28;20208;-70
2021/04/11 13:09:17;;;;;;;6.43;1.48;;;32.50;33.70;;;;;;5096286;28;20201;-70
2021/04/11 13:12:04;;;;;;;1.23;1.13;;;32.70;34.40;;;;;;5097031;28;20576;-69
2021/04/11 13:14:57;;;;;;;1.02;1.02;;;33.10;32.80;;;;;;5090613;28;20264;-69
2021/04/11 13:17:34;;;;;;;1.55;1.45;;;33.40;33.10;;;;;;5096745;28;20232;-69
2021/04/11 13:20:13;;;;;;;1.58;1.50;;;33.20;32.60;;;;;;5094045;28;20177;-70
2021/04/11 13:22:48;;;;;;;2.00;1.80;;;33.30;33.00;;;;;;5094190;28;20265;-69
2021/04/11 13:25:28;;;;;;;1.40;1.40;;;33.70;32.20;;;;;;5089861;28;20264;-68
2021/04/11 13:27:58;;;;;;;1.20;1.20;;;34.10;31.60;;;;;;5088930;28;20574;-68
2021/04/11 13:30:28;;;;;;;1.30;1.30;;;34.60;32.90;;;;;;5090967;28;20779;-69
2021/04/11 13:33:25;;;;;;;1.65;1.40;;;34.60;31.80;;;;;;5090898;28;20173;-68
2021/04/11 13:36:03;;;;;;;1.42;1.33;;;35.00;31.70;;;;;;5092238;28;20254;-68
2021/04/11 13:38:31;;;;;;;1.52;1.42;;;35.40;32.30;;;;;;5090625;28;20181;-69
2021/04/11 13:41:13;;;;;;;1.20;1.20;;;35.70;32.80;;;;;;5088246;28;20265;-69
2021/04/11 13:43:54;;;;;;;1.48;1.38;;;36.10;31.40;;;;;;5091033;28;20287;-69
2021/04/11 13:46:56;;;;;;;1.08;1.08;;;36.30;31.70;;;;;;5088387;28;20704;-68
2021/04/11 13:49:43;;;;;;;1.40;1.40;;;36.50;30.80;;;;;;5094417;28;20253;-69
2021/04/11 13:52:31;;;;;;;1.50;1.40;;;36.60;30.60;;;;;;5092562;28;20181;-69
2021/04/11 13:55:20;;;;;;;1.73;1.27;;;35.80;31.10;;;;;;5086464;28;20188;-69
2021/04/11 13:58:18;;;;;;;1.50;1.20;;;35.40;31.80;;;;;;5088611;28;20242;-68
2021/04/11 14:01:08;;;;;;;1.30;1.30;;;35.40;31.60;;;;;;5089962;28;20642;-69